Pagrindinis puslapis
METAR-TAF:

METAR-TAF

Oro uostai :

Noršiopingas, Švedija

platuma: 58-35N, ilguma: 016-09E, Aukštis: 34 m

Dabartinis oras

Ataskaita buvo paskelbta 28 minutes, ne 22:20 UTC
Vėjas 3 kt iš Pietryčių
Temperatūra 15°C
Drėgmė 100%
Slėgis 1012 hPa
Matomumas 10 km arba daugiau

METAR: ESSP 142220Z AUTO 13003KT 9999 BKN045/// BKN057/// OVC100/// 15/15 Q1012

Laikas: 00:48 (22:48 UTC)

Prognozė

Ataskaita buvo paskelbta 11 valandos ir 18 minutes, ne 11:30 UTC
Prognozė galioja nuo 14 metu 12 UTC su 14 metu 16 UTC
Vėjas 13 kt iš Pietvakarių
Matomumas 10 km arba daugiau
Su prošvaistėmis ne aukštis 3000 ft

TAF: ESSP 141130Z 1412/1416 23013KT 9999 BKN030

Orai ataskaitas ir orų prognozės (METAR, TAF).

turimą stotys yra geltonos ir raudonos taškus žemėlapyje.

Perkelti pele per norėdami pamatyti stoties vardą.

Tada spustelėkite, norėdami matyti oro stebėjimo ir prognozės.

Norėdami pakeisti žemėlapį: spustelėkite ant žalios mygtukų su juodo kryžiaus žemyn,; žalią mygtuką su brūkšneliu, jei norite nutolinti; arba žalių rodyklių gretimoms žemėlapius.


METAR-TAF: